Terminal Aerodrome Forecast
Issued by NWS

Home | Current Version | Previous Version | Text Only | Print | Product List | Glossary On
Versions: 1 2 3 4 5 6 7 8 9 10 11 12 13 14 15 16 17 18 19 20 21 22 23 24 25 26 27
000
FTUS43 KDVN 150213 AAA
TAFCID
TAF AMD
KCID 150213Z 1502/1524 17010KT 3SM -SN BR OVC010
     FM150245 16009KT 1SM -SN BR OVC007
     FM150900 30013G20KT 6SM -SHSN BR OVC015
     FM151200 31020G29KT 5SM BLSN BKN018
     FM151800 31018G26KT P6SM BKN025=

USA.gov is the U.S. government's official web portal to all federal, state and local government web resources and services.